sensor_id;sensor_type;location;lat;lon;timestamp;P1;durP1;ratioP1;P2;durP2;ratioP2
3081;SDS011;1551;51.046;7.010;2023-06-10T00:01:50;8.05;;;6.43;;
3081;SDS011;1551;51.046;7.010;2023-06-10T00:04:39;6.82;;;6.18;;
3081;SDS011;1551;51.046;7.010;2023-06-10T00:07:28;7.13;;;6.45;;
3081;SDS011;1551;51.046;7.010;2023-06-10T00:10:17;7.20;;;6.13;;
3081;SDS011;1551;51.046;7.010;2023-06-10T00:13:06;7.22;;;6.53;;
3081;SDS011;1551;51.046;7.010;2023-06-10T00:15:59;7.40;;;6.28;;
3081;SDS011;1551;51.046;7.010;2023-06-10T00:18:48;7.00;;;6.30;;
3081;SDS011;1551;51.046;7.010;2023-06-10T00:21:39;7.25;;;6.55;;
3081;SDS011;1551;51.046;7.010;2023-06-10T00:24:29;7.60;;;6.85;;
3081;SDS011;1551;51.046;7.010;2023-06-10T00:27:18;8.52;;;7.47;;
3081;SDS011;1551;51.046;7.010;2023-06-10T00:30:07;7.13;;;5.90;;
3081;SDS011;1551;51.046;7.010;2023-06-10T00:32:56;7.70;;;6.78;;
3081;SDS011;1551;51.046;7.010;2023-06-10T00:35:46;6.87;;;6.20;;
3081;SDS011;1551;51.046;7.010;2023-06-10T00:38:35;7.20;;;6.50;;
3081;SDS011;1551;51.046;7.010;2023-06-10T00:41:25;6.97;;;6.25;;
3081;SDS011;1551;51.046;7.010;2023-06-10T00:44:17;7.07;;;6.38;;
3081;SDS011;1551;51.046;7.010;2023-06-10T00:47:06;9.02;;;6.20;;
3081;SDS011;1551;51.046;7.010;2023-06-10T00:49:56;9.60;;;6.55;;
3081;SDS011;1551;51.046;7.010;2023-06-10T00:52:46;7.53;;;6.83;;
3081;SDS011;1551;51.046;7.010;2023-06-10T00:55:37;7.97;;;7.18;;
3081;SDS011;1551;51.046;7.010;2023-06-10T00:58:26;6.97;;;6.28;;
3081;SDS011;1551;51.046;7.010;2023-06-10T01:01:15;6.80;;;6.10;;
3081;SDS011;1551;51.046;7.010;2023-06-10T01:04:04;8.63;;;6.47;;
3081;SDS011;1551;51.046;7.010;2023-06-10T01:07:36;7.57;;;6.30;;
3081;SDS011;1551;51.046;7.010;2023-06-10T01:10:16;9.30;;;5.95;;
3081;SDS011;1551;51.046;7.010;2023-06-10T01:13:11;8.55;;;6.70;;
3081;SDS011;1551;51.046;7.010;2023-06-10T01:16:02;8.00;;;5.90;;
3081;SDS011;1551;51.046;7.010;2023-06-10T01:18:51;7.90;;;6.50;;
3081;SDS011;1551;51.046;7.010;2023-06-10T01:21:41;7.07;;;6.20;;
3081;SDS011;1551;51.046;7.010;2023-06-10T01:24:30;8.00;;;6.78;;
3081;SDS011;1551;51.046;7.010;2023-06-10T01:27:22;7.65;;;6.70;;
3081;SDS011;1551;51.046;7.010;2023-06-10T01:30:17;7.07;;;6.45;;
3081;SDS011;1551;51.046;7.010;2023-06-10T01:33:12;7.32;;;6.63;;
3081;SDS011;1551;51.046;7.010;2023-06-10T01:36:04;7.40;;;6.53;;
3081;SDS011;1551;51.046;7.010;2023-06-10T01:38:54;7.50;;;6.80;;
3081;SDS011;1551;51.046;7.010;2023-06-10T01:41:45;9.57;;;6.82;;
3081;SDS011;1551;51.046;7.010;2023-06-10T01:44:34;7.57;;;6.88;;
3081;SDS011;1551;51.046;7.010;2023-06-10T01:47:23;7.60;;;6.85;;
3081;SDS011;1551;51.046;7.010;2023-06-10T01:50:12;7.78;;;6.97;;
3081;SDS011;1551;51.046;7.010;2023-06-10T01:53:01;7.78;;;6.97;;
3081;SDS011;1551;51.046;7.010;2023-06-10T01:55:50;8.45;;;6.85;;
3081;SDS011;1551;51.046;7.010;2023-06-10T01:58:39;8.80;;;6.43;;
3081;SDS011;1551;51.046;7.010;2023-06-10T02:01:29;8.30;;;7.37;;
3081;SDS011;1551;51.046;7.010;2023-06-10T02:04:18;7.55;;;6.85;;
3081;SDS011;1551;51.046;7.010;2023-06-10T02:07:07;8.25;;;7.45;;
3081;SDS011;1551;51.046;7.010;2023-06-10T02:09:56;8.57;;;6.90;;
3081;SDS011;1551;51.046;7.010;2023-06-10T02:12:45;7.63;;;6.85;;
3081;SDS011;1551;51.046;7.010;2023-06-10T02:15:34;8.40;;;7.60;;
3081;SDS011;1551;51.046;7.010;2023-06-10T02:18:23;8.60;;;7.57;;
3081;SDS011;1551;51.046;7.010;2023-06-10T02:21:12;8.80;;;7.90;;
3081;SDS011;1551;51.046;7.010;2023-06-10T02:24:01;8.70;;;7.93;;
3081;SDS011;1551;51.046;7.010;2023-06-10T02:26:50;10.55;;;7.78;;
3081;SDS011;1551;51.046;7.010;2023-06-10T02:29:40;9.13;;;8.05;;
3081;SDS011;1551;51.046;7.010;2023-06-10T02:32:30;9.35;;;8.45;;
3081;SDS011;1551;51.046;7.010;2023-06-10T02:35:20;8.90;;;8.00;;
3081;SDS011;1551;51.046;7.010;2023-06-10T02:38:10;10.30;;;7.20;;
3081;SDS011;1551;51.046;7.010;2023-06-10T02:40:59;8.77;;;7.88;;
3081;SDS011;1551;51.046;7.010;2023-06-10T02:43:48;8.48;;;7.68;;
3081;SDS011;1551;51.046;7.010;2023-06-10T02:46:37;9.18;;;7.80;;
3081;SDS011;1551;51.046;7.010;2023-06-10T02:49:27;8.70;;;7.80;;
3081;SDS011;1551;51.046;7.010;2023-06-10T02:52:17;9.33;;;8.43;;
3081;SDS011;1551;51.046;7.010;2023-06-10T02:55:07;9.20;;;8.40;;
3081;SDS011;1551;51.046;7.010;2023-06-10T02:57:56;9.27;;;8.32;;
3081;SDS011;1551;51.046;7.010;2023-06-10T03:00:46;8.98;;;8.05;;
3081;SDS011;1551;51.046;7.010;2023-06-10T03:03:36;9.88;;;8.52;;
3081;SDS011;1551;51.046;7.010;2023-06-10T03:06:31;8.87;;;8.07;;
3081;SDS011;1551;51.046;7.010;2023-06-10T03:09:34;9.53;;;8.53;;
3081;SDS011;1551;51.046;7.010;2023-06-10T03:12:25;10.40;;;8.37;;
3081;SDS011;1551;51.046;7.010;2023-06-10T03:15:14;9.80;;;8.30;;
3081;SDS011;1551;51.046;7.010;2023-06-10T03:18:04;10.38;;;8.43;;
3081;SDS011;1551;51.046;7.010;2023-06-10T03:20:54;9.70;;;8.70;;
3081;SDS011;1551;51.046;7.010;2023-06-10T03:23:45;8.73;;;7.93;;
3081;SDS011;1551;51.046;7.010;2023-06-10T03:26:34;9.75;;;8.75;;
3081;SDS011;1551;51.046;7.010;2023-06-10T03:29:24;8.68;;;7.78;;
3081;SDS011;1551;51.046;7.010;2023-06-10T03:32:13;8.40;;;7.57;;
3081;SDS011;1551;51.046;7.010;2023-06-10T03:35:04;9.30;;;8.30;;
3081;SDS011;1551;51.046;7.010;2023-06-10T03:37:55;9.27;;;8.38;;
3081;SDS011;1551;51.046;7.010;2023-06-10T03:40:44;9.20;;;8.30;;
3081;SDS011;1551;51.046;7.010;2023-06-10T03:43:33;8.75;;;7.85;;
3081;SDS011;1551;51.046;7.010;2023-06-10T03:46:23;8.65;;;7.75;;
3081;SDS011;1551;51.046;7.010;2023-06-10T03:49:12;11.40;;;7.93;;
3081;SDS011;1551;51.046;7.010;2023-06-10T03:52:03;9.10;;;8.10;;
3081;SDS011;1551;51.046;7.010;2023-06-10T03:54:53;9.88;;;8.27;;
3081;SDS011;1551;51.046;7.010;2023-06-10T03:57:42;8.90;;;8.07;;
3081;SDS011;1551;51.046;7.010;2023-06-10T04:00:31;8.53;;;7.73;;
3081;SDS011;1551;51.046;7.010;2023-06-10T04:03:29;11.00;;;8.30;;
3081;SDS011;1551;51.046;7.010;2023-06-10T04:06:18;8.57;;;7.78;;
3081;SDS011;1551;51.046;7.010;2023-06-10T04:09:07;8.60;;;7.80;;
3081;SDS011;1551;51.046;7.010;2023-06-10T04:11:57;8.98;;;8.10;;
3081;SDS011;1551;51.046;7.010;2023-06-10T04:14:46;9.40;;;8.50;;
3081;SDS011;1551;51.046;7.010;2023-06-10T04:17:35;9.60;;;8.00;;
3081;SDS011;1551;51.046;7.010;2023-06-10T04:20:25;10.38;;;8.45;;
3081;SDS011;1551;51.046;7.010;2023-06-10T04:23:15;9.07;;;8.07;;
3081;SDS011;1551;51.046;7.010;2023-06-10T04:26:07;9.10;;;7.90;;
3081;SDS011;1551;51.046;7.010;2023-06-10T04:28:56;9.60;;;8.70;;
3081;SDS011;1551;51.046;7.010;2023-06-10T04:31:46;8.82;;;7.93;;
3081;SDS011;1551;51.046;7.010;2023-06-10T04:34:36;9.05;;;8.10;;
3081;SDS011;1551;51.046;7.010;2023-06-10T04:37:28;9.10;;;8.20;;
3081;SDS011;1551;51.046;7.010;2023-06-10T04:40:18;9.73;;;8.65;;
3081;SDS011;1551;51.046;7.010;2023-06-10T04:43:09;9.00;;;8.10;;
3081;SDS011;1551;51.046;7.010;2023-06-10T04:46:00;10.47;;;8.70;;
3081;SDS011;1551;51.046;7.010;2023-06-10T04:48:51;10.50;;;8.40;;
3081;SDS011;1551;51.046;7.010;2023-06-10T04:51:40;9.50;;;8.60;;
3081;SDS011;1551;51.046;7.010;2023-06-10T04:54:30;9.63;;;8.63;;
3081;SDS011;1551;51.046;7.010;2023-06-10T04:57:21;10.77;;;8.63;;
3081;SDS011;1551;51.046;7.010;2023-06-10T05:00:10;9.07;;;8.20;;
3081;SDS011;1551;51.046;7.010;2023-06-10T05:02:59;9.10;;;8.20;;
3081;SDS011;1551;51.046;7.010;2023-06-10T05:05:48;8.95;;;7.90;;
3081;SDS011;1551;51.046;7.010;2023-06-10T05:08:37;8.95;;;8.05;;
3081;SDS011;1551;51.046;7.010;2023-06-10T05:11:26;8.90;;;8.00;;
3081;SDS011;1551;51.046;7.010;2023-06-10T05:14:15;8.73;;;7.83;;
3081;SDS011;1551;51.046;7.010;2023-06-10T05:17:05;8.60;;;7.80;;
3081;SDS011;1551;51.046;7.010;2023-06-10T05:19:54;8.90;;;7.95;;
3081;SDS011;1551;51.046;7.010;2023-06-10T05:22:44;9.35;;;8.45;;
3081;SDS011;1551;51.046;7.010;2023-06-10T05:25:33;10.43;;;8.40;;
3081;SDS011;1551;51.046;7.010;2023-06-10T05:28:22;9.80;;;8.80;;
3081;SDS011;1551;51.046;7.010;2023-06-10T05:31:11;11.38;;;8.85;;
3081;SDS011;1551;51.046;7.010;2023-06-10T05:34:00;9.20;;;8.37;;
3081;SDS011;1551;51.046;7.010;2023-06-10T05:36:49;10.90;;;8.88;;
3081;SDS011;1551;51.046;7.010;2023-06-10T05:39:38;9.85;;;8.65;;
3081;SDS011;1551;51.046;7.010;2023-06-10T05:42:28;9.73;;;7.95;;
3081;SDS011;1551;51.046;7.010;2023-06-10T05:45:17;9.15;;;8.25;;
3081;SDS011;1551;51.046;7.010;2023-06-10T05:48:06;8.40;;;7.50;;
3081;SDS011;1551;51.046;7.010;2023-06-10T05:50:55;9.15;;;7.97;;
3081;SDS011;1551;51.046;7.010;2023-06-10T05:53:44;7.80;;;7.00;;
3081;SDS011;1551;51.046;7.010;2023-06-10T05:56:34;9.95;;;8.32;;
3081;SDS011;1551;51.046;7.010;2023-06-10T05:59:23;9.27;;;8.30;;
3081;SDS011;1551;51.046;7.010;2023-06-10T06:02:12;9.43;;;7.00;;
3081;SDS011;1551;51.046;7.010;2023-06-10T06:05:01;8.40;;;7.60;;
3081;SDS011;1551;51.046;7.010;2023-06-10T06:07:50;7.60;;;6.00;;
3081;SDS011;1551;51.046;7.010;2023-06-10T06:10:39;7.68;;;6.90;;
3081;SDS011;1551;51.046;7.010;2023-06-10T06:13:28;10.23;;;6.70;;
3081;SDS011;1551;51.046;7.010;2023-06-10T06:16:17;6.40;;;5.70;;
3081;SDS011;1551;51.046;7.010;2023-06-10T06:19:07;7.15;;;6.45;;
3081;SDS011;1551;51.046;7.010;2023-06-10T06:21:56;7.35;;;6.65;;
3081;SDS011;1551;51.046;7.010;2023-06-10T06:24:44;6.40;;;5.80;;
3081;SDS011;1551;51.046;7.010;2023-06-10T06:27:33;6.80;;;6.10;;
3081;SDS011;1551;51.046;7.010;2023-06-10T06:30:22;6.38;;;5.60;;
3081;SDS011;1551;51.046;7.010;2023-06-10T06:33:11;10.70;;;6.30;;
3081;SDS011;1551;51.046;7.010;2023-06-10T06:36:01;6.97;;;6.07;;
3081;SDS011;1551;51.046;7.010;2023-06-10T06:38:50;8.13;;;6.30;;
3081;SDS011;1551;51.046;7.010;2023-06-10T06:41:40;6.93;;;5.50;;
3081;SDS011;1551;51.046;7.010;2023-06-10T06:44:29;7.27;;;6.23;;
3081;SDS011;1551;51.046;7.010;2023-06-10T06:47:18;6.47;;;5.78;;
3081;SDS011;1551;51.046;7.010;2023-06-10T06:50:08;9.07;;;6.50;;
3081;SDS011;1551;51.046;7.010;2023-06-10T06:52:58;6.88;;;5.78;;
3081;SDS011;1551;51.046;7.010;2023-06-10T06:55:47;7.05;;;5.60;;
3081;SDS011;1551;51.046;7.010;2023-06-10T06:58:36;7.07;;;5.90;;
3081;SDS011;1551;51.046;7.010;2023-06-10T07:01:25;7.82;;;5.85;;
3081;SDS011;1551;51.046;7.010;2023-06-10T07:04:14;7.70;;;5.90;;
3081;SDS011;1551;51.046;7.010;2023-06-10T07:07:07;6.40;;;5.80;;
3081;SDS011;1551;51.046;7.010;2023-06-10T07:09:57;6.00;;;5.40;;
3081;SDS011;1551;51.046;7.010;2023-06-10T07:12:46;8.48;;;5.63;;
3081;SDS011;1551;51.046;7.010;2023-06-10T07:15:35;6.68;;;5.82;;
3081;SDS011;1551;51.046;7.010;2023-06-10T07:18:24;7.40;;;5.90;;
3081;SDS011;1551;51.046;7.010;2023-06-10T07:21:13;6.72;;;5.38;;
3081;SDS011;1551;51.046;7.010;2023-06-10T07:24:02;7.35;;;6.43;;
3081;SDS011;1551;51.046;7.010;2023-06-10T07:26:50;7.60;;;6.90;;
3081;SDS011;1551;51.046;7.010;2023-06-10T07:29:39;6.13;;;5.53;;
3081;SDS011;1551;51.046;7.010;2023-06-10T07:32:28;7.57;;;6.15;;
3081;SDS011;1551;51.046;7.010;2023-06-10T07:35:17;6.55;;;5.95;;
3081;SDS011;1551;51.046;7.010;2023-06-10T07:38:06;7.60;;;6.10;;
3081;SDS011;1551;51.046;7.010;2023-06-10T07:40:55;6.68;;;5.47;;
3081;SDS011;1551;51.046;7.010;2023-06-10T07:43:44;7.40;;;5.88;;
3081;SDS011;1551;51.046;7.010;2023-06-10T07:46:34;7.82;;;6.07;;
3081;SDS011;1551;51.046;7.010;2023-06-10T07:49:23;6.33;;;5.73;;
3081;SDS011;1551;51.046;7.010;2023-06-10T07:52:11;6.93;;;6.13;;
3081;SDS011;1551;51.046;7.010;2023-06-10T07:55:00;7.50;;;5.50;;
3081;SDS011;1551;51.046;7.010;2023-06-10T07:57:49;7.43;;;6.00;;
3081;SDS011;1551;51.046;7.010;2023-06-10T08:00:38;8.25;;;6.15;;
3081;SDS011;1551;51.046;7.010;2023-06-10T08:03:27;6.90;;;5.20;;
3081;SDS011;1551;51.046;7.010;2023-06-10T08:06:16;6.13;;;5.53;;
3081;SDS011;1551;51.046;7.010;2023-06-10T08:09:08;6.75;;;5.63;;
3081;SDS011;1551;51.046;7.010;2023-06-10T08:11:57;8.07;;;6.13;;
3081;SDS011;1551;51.046;7.010;2023-06-10T08:14:46;6.55;;;5.85;;
3081;SDS011;1551;51.046;7.010;2023-06-10T08:17:35;8.27;;;5.80;;
3081;SDS011;1551;51.046;7.010;2023-06-10T08:20:24;6.82;;;5.20;;
3081;SDS011;1551;51.046;7.010;2023-06-10T08:23:14;6.23;;;5.50;;
3081;SDS011;1551;51.046;7.010;2023-06-10T08:26:03;7.13;;;5.80;;
3081;SDS011;1551;51.046;7.010;2023-06-10T08:28:52;6.72;;;6.13;;
3081;SDS011;1551;51.046;7.010;2023-06-10T08:31:41;7.68;;;5.75;;
3081;SDS011;1551;51.046;7.010;2023-06-10T08:34:34;5.93;;;5.32;;
3081;SDS011;1551;51.046;7.010;2023-06-10T08:37:26;7.70;;;6.22;;
3081;SDS011;1551;51.046;7.010;2023-06-10T08:40:15;6.70;;;6.00;;
3081;SDS011;1551;51.046;7.010;2023-06-10T08:43:08;6.90;;;6.30;;
3081;SDS011;1551;51.046;7.010;2023-06-10T08:46:05;6.97;;;6.38;;
3081;SDS011;1551;51.046;7.010;2023-06-10T08:48:57;8.63;;;5.65;;
3081;SDS011;1551;51.046;7.010;2023-06-10T08:51:58;10.68;;;5.90;;
3081;SDS011;1551;51.046;7.010;2023-06-10T08:54:57;6.57;;;5.97;;
3081;SDS011;1551;51.046;7.010;2023-06-10T08:57:52;8.10;;;5.80;;
3081;SDS011;1551;51.046;7.010;2023-06-10T09:00:42;6.28;;;5.40;;
3081;SDS011;1551;51.046;7.010;2023-06-10T09:03:31;7.05;;;5.90;;
3081;SDS011;1551;51.046;7.010;2023-06-10T09:06:22;7.28;;;6.15;;
3081;SDS011;1551;51.046;7.010;2023-06-10T09:09:11;6.47;;;5.80;;
3081;SDS011;1551;51.046;7.010;2023-06-10T09:12:01;6.30;;;5.70;;
3081;SDS011;1551;51.046;7.010;2023-06-10T09:14:51;6.40;;;5.80;;
3081;SDS011;1551;51.046;7.010;2023-06-10T09:17:40;7.50;;;5.50;;
3081;SDS011;1551;51.046;7.010;2023-06-10T09:20:29;6.90;;;6.30;;
3081;SDS011;1551;51.046;7.010;2023-06-10T09:23:18;6.40;;;5.80;;
3081;SDS011;1551;51.046;7.010;2023-06-10T09:26:10;6.32;;;5.72;;
3081;SDS011;1551;51.046;7.010;2023-06-10T09:29:03;7.65;;;5.90;;
3081;SDS011;1551;51.046;7.010;2023-06-10T09:31:54;6.43;;;5.82;;
3081;SDS011;1551;51.046;7.010;2023-06-10T09:34:42;6.13;;;5.20;;
3081;SDS011;1551;51.046;7.010;2023-06-10T09:37:32;6.68;;;6.07;;
3081;SDS011;1551;51.046;7.010;2023-06-10T09:40:21;8.18;;;6.30;;
3081;SDS011;1551;51.046;7.010;2023-06-10T09:43:10;6.10;;;5.60;;
3081;SDS011;1551;51.046;7.010;2023-06-10T09:46:01;7.28;;;6.68;;
3081;SDS011;1551;51.046;7.010;2023-06-10T09:48:50;6.95;;;6.25;;
3081;SDS011;1551;51.046;7.010;2023-06-10T09:51:52;7.20;;;6.10;;
3081;SDS011;1551;51.046;7.010;2023-06-10T09:54:43;7.38;;;5.80;;
3081;SDS011;1551;51.046;7.010;2023-06-10T09:57:33;7.07;;;6.30;;
3081;SDS011;1551;51.046;7.010;2023-06-10T10:00:22;6.93;;;6.33;;
3081;SDS011;1551;51.046;7.010;2023-06-10T10:03:11;7.10;;;6.50;;
3081;SDS011;1551;51.046;7.010;2023-06-10T10:06:11;6.85;;;6.15;;
3081;SDS011;1551;51.046;7.010;2023-06-10T10:09:01;6.93;;;5.30;;
3081;SDS011;1551;51.046;7.010;2023-06-10T10:11:52;7.25;;;6.03;;
3081;SDS011;1551;51.046;7.010;2023-06-10T10:14:45;6.90;;;6.20;;
3081;SDS011;1551;51.046;7.010;2023-06-10T10:17:58;6.00;;;5.30;;
3081;SDS011;1551;51.046;7.010;2023-06-10T10:20:50;7.00;;;5.90;;
3081;SDS011;1551;51.046;7.010;2023-06-10T10:24:34;6.47;;;5.87;;
3081;SDS011;1551;51.046;7.010;2023-06-10T10:26:53;7.35;;;5.70;;
3081;SDS011;1551;51.046;7.010;2023-06-10T10:29:47;6.50;;;5.80;;
3081;SDS011;1551;51.046;7.010;2023-06-10T10:32:47;6.03;;;5.20;;
3081;SDS011;1551;51.046;7.010;2023-06-10T10:35:52;8.43;;;5.50;;
3081;SDS011;1551;51.046;7.010;2023-06-10T10:38:41;5.82;;;5.30;;
3081;SDS011;1551;51.046;7.010;2023-06-10T10:41:32;6.22;;;5.63;;
3081;SDS011;1551;51.046;7.010;2023-06-10T10:44:22;5.80;;;5.20;;
3081;SDS011;1551;51.046;7.010;2023-06-10T10:47:11;5.90;;;5.30;;
3081;SDS011;1551;51.046;7.010;2023-06-10T10:50:02;5.60;;;5.10;;
3081;SDS011;1551;51.046;7.010;2023-06-10T10:53:02;6.10;;;5.50;;
3081;SDS011;1551;51.046;7.010;2023-06-10T10:56:05;7.68;;;5.65;;
3081;SDS011;1551;51.046;7.010;2023-06-10T10:59:05;5.97;;;5.38;;
3081;SDS011;1551;51.046;7.010;2023-06-10T11:01:55;6.60;;;6.00;;
3081;SDS011;1551;51.046;7.010;2023-06-10T11:04:46;6.10;;;5.50;;
3081;SDS011;1551;51.046;7.010;2023-06-10T11:07:36;6.53;;;5.03;;
3081;SDS011;1551;51.046;7.010;2023-06-10T11:10:30;5.82;;;5.22;;
3081;SDS011;1551;51.046;7.010;2023-06-10T11:13:25;6.60;;;5.90;;
3081;SDS011;1551;51.046;7.010;2023-06-10T11:16:18;6.07;;;5.38;;
3081;SDS011;1551;51.046;7.010;2023-06-10T11:19:09;5.85;;;5.30;;
3081;SDS011;1551;51.046;7.010;2023-06-10T11:21:59;6.30;;;5.70;;
3081;SDS011;1551;51.046;7.010;2023-06-10T11:24:49;6.43;;;5.83;;
3081;SDS011;1551;51.046;7.010;2023-06-10T11:27:39;5.72;;;5.13;;
3081;SDS011;1551;51.046;7.010;2023-06-10T11:30:29;5.80;;;5.20;;
3081;SDS011;1551;51.046;7.010;2023-06-10T11:33:23;6.40;;;5.80;;
3081;SDS011;1551;51.046;7.010;2023-06-10T11:36:14;6.07;;;5.47;;
3081;SDS011;1551;51.046;7.010;2023-06-10T11:39:04;7.88;;;6.10;;
3081;SDS011;1551;51.046;7.010;2023-06-10T11:41:54;8.85;;;5.78;;
3081;SDS011;1551;51.046;7.010;2023-06-10T11:44:53;8.20;;;5.65;;
3081;SDS011;1551;51.046;7.010;2023-06-10T11:47:55;8.27;;;7.32;;
3081;SDS011;1551;51.046;7.010;2023-06-10T11:50:45;6.30;;;5.70;;
3081;SDS011;1551;51.046;7.010;2023-06-10T11:53:33;7.70;;;7.00;;
3081;SDS011;1551;51.046;7.010;2023-06-10T11:56:24;8.13;;;6.00;;
3081;SDS011;1551;51.046;7.010;2023-06-10T11:59:18;6.97;;;5.68;;
3081;SDS011;1551;51.046;7.010;2023-06-10T12:02:14;5.93;;;5.43;;
3081;SDS011;1551;51.046;7.010;2023-06-10T12:05:11;6.60;;;5.90;;
3081;SDS011;1551;51.046;7.010;2023-06-10T12:08:09;6.97;;;6.37;;
3081;SDS011;1551;51.046;7.010;2023-06-10T12:10:59;6.00;;;5.30;;
3081;SDS011;1551;51.046;7.010;2023-06-10T12:13:49;6.93;;;5.35;;
3081;SDS011;1551;51.046;7.010;2023-06-10T12:16:39;6.75;;;6.05;;
3081;SDS011;1551;51.046;7.010;2023-06-10T12:19:28;6.53;;;5.93;;
3081;SDS011;1551;51.046;7.010;2023-06-10T12:22:17;6.30;;;5.77;;
3081;SDS011;1551;51.046;7.010;2023-06-10T12:25:08;6.40;;;5.80;;
3081;SDS011;1551;51.046;7.010;2023-06-10T12:27:58;7.43;;;5.38;;
3081;SDS011;1551;51.046;7.010;2023-06-10T12:30:47;7.10;;;6.05;;
3081;SDS011;1551;51.046;7.010;2023-06-10T12:33:37;5.55;;;5.05;;
3081;SDS011;1551;51.046;7.010;2023-06-10T12:36:26;7.53;;;5.65;;
3081;SDS011;1551;51.046;7.010;2023-06-10T12:39:15;8.68;;;7.20;;
3081;SDS011;1551;51.046;7.010;2023-06-10T12:42:04;6.22;;;5.63;;
3081;SDS011;1551;51.046;7.010;2023-06-10T12:44:55;6.00;;;5.40;;
3081;SDS011;1551;51.046;7.010;2023-06-10T12:47:45;6.50;;;5.80;;
3081;SDS011;1551;51.046;7.010;2023-06-10T12:50:35;6.90;;;6.20;;
3081;SDS011;1551;51.046;7.010;2023-06-10T12:53:26;7.07;;;6.37;;
3081;SDS011;1551;51.046;7.010;2023-06-10T12:56:18;5.80;;;5.30;;
3081;SDS011;1551;51.046;7.010;2023-06-10T12:59:07;6.45;;;5.85;;
3081;SDS011;1551;51.046;7.010;2023-06-10T13:01:56;5.70;;;5.20;;
3081;SDS011;1551;51.046;7.010;2023-06-10T13:04:45;9.13;;;5.80;;
3081;SDS011;1551;51.046;7.010;2023-06-10T13:07:36;6.10;;;5.30;;
3081;SDS011;1551;51.046;7.010;2023-06-10T13:10:25;6.00;;;5.50;;
3081;SDS011;1551;51.046;7.010;2023-06-10T13:13:14;6.10;;;5.50;;
3081;SDS011;1551;51.046;7.010;2023-06-10T13:16:03;6.15;;;5.55;;
3081;SDS011;1551;51.046;7.010;2023-06-10T13:18:53;6.25;;;5.10;;
3081;SDS011;1551;51.046;7.010;2023-06-10T13:21:42;7.40;;;6.60;;
3081;SDS011;1551;51.046;7.010;2023-06-10T13:24:31;5.72;;;5.22;;
3081;SDS011;1551;51.046;7.010;2023-06-10T13:27:20;6.20;;;5.05;;
3081;SDS011;1551;51.046;7.010;2023-06-10T13:30:09;7.55;;;5.10;;
3081;SDS011;1551;51.046;7.010;2023-06-10T13:32:59;5.70;;;5.20;;
3081;SDS011;1551;51.046;7.010;2023-06-10T13:35:49;6.88;;;5.55;;
3081;SDS011;1551;51.046;7.010;2023-06-10T13:38:38;6.43;;;5.72;;
3081;SDS011;1551;51.046;7.010;2023-06-10T13:41:27;5.78;;;5.18;;
3081;SDS011;1551;51.046;7.010;2023-06-10T13:44:17;5.78;;;5.28;;
3081;SDS011;1551;51.046;7.010;2023-06-10T13:47:06;8.30;;;7.43;;
3081;SDS011;1551;51.046;7.010;2023-06-10T13:49:55;6.10;;;5.20;;
3081;SDS011;1551;51.046;7.010;2023-06-10T13:52:44;5.82;;;5.32;;
3081;SDS011;1551;51.046;7.010;2023-06-10T13:55:33;8.20;;;5.10;;
3081;SDS011;1551;51.046;7.010;2023-06-10T13:58:22;7.82;;;6.65;;
3081;SDS011;1551;51.046;7.010;2023-06-10T14:01:11;6.40;;;5.35;;
3081;SDS011;1551;51.046;7.010;2023-06-10T14:03:59;5.00;;;4.60;;
3081;SDS011;1551;51.046;7.010;2023-06-10T14:06:49;5.57;;;4.28;;
3081;SDS011;1551;51.046;7.010;2023-06-10T14:09:38;5.60;;;4.50;;
3081;SDS011;1551;51.046;7.010;2023-06-10T14:12:27;5.15;;;4.65;;
3081;SDS011;1551;51.046;7.010;2023-06-10T14:15:16;5.23;;;4.73;;
3081;SDS011;1551;51.046;7.010;2023-06-10T14:18:05;5.30;;;4.80;;
3081;SDS011;1551;51.046;7.010;2023-06-10T14:20:54;5.23;;;4.73;;
3081;SDS011;1551;51.046;7.010;2023-06-10T14:23:42;6.35;;;5.22;;
3081;SDS011;1551;51.046;7.010;2023-06-10T14:26:32;8.73;;;6.00;;
3081;SDS011;1551;51.046;7.010;2023-06-10T14:29:21;7.20;;;5.97;;
3081;SDS011;1551;51.046;7.010;2023-06-10T14:32:10;9.10;;;6.28;;
3081;SDS011;1551;51.046;7.010;2023-06-10T14:34:59;9.57;;;7.57;;
3081;SDS011;1551;51.046;7.010;2023-06-10T14:37:48;4.93;;;4.53;;
3081;SDS011;1551;51.046;7.010;2023-06-10T14:40:37;5.72;;;4.63;;
3081;SDS011;1551;51.046;7.010;2023-06-10T14:43:26;4.85;;;4.45;;
3081;SDS011;1551;51.046;7.010;2023-06-10T14:46:15;6.45;;;5.80;;
3081;SDS011;1551;51.046;7.010;2023-06-10T14:49:04;4.68;;;4.25;;
3081;SDS011;1551;51.046;7.010;2023-06-10T14:51:53;5.53;;;4.50;;
3081;SDS011;1551;51.046;7.010;2023-06-10T14:54:42;8.32;;;5.13;;
3081;SDS011;1551;51.046;7.010;2023-06-10T14:57:31;7.75;;;5.63;;
3081;SDS011;1551;51.046;7.010;2023-06-10T15:00:20;6.20;;;5.00;;
3081;SDS011;1551;51.046;7.010;2023-06-10T15:03:11;5.10;;;4.35;;
3081;SDS011;1551;51.046;7.010;2023-06-10T15:06:00;6.40;;;4.23;;
3081;SDS011;1551;51.046;7.010;2023-06-10T15:08:49;5.40;;;4.90;;
3081;SDS011;1551;51.046;7.010;2023-06-10T15:11:38;5.28;;;4.78;;
3081;SDS011;1551;51.046;7.010;2023-06-10T15:14:27;5.03;;;4.53;;
3081;SDS011;1551;51.046;7.010;2023-06-10T15:17:16;5.10;;;4.60;;
3081;SDS011;1551;51.046;7.010;2023-06-10T15:20:05;5.78;;;5.18;;
3081;SDS011;1551;51.046;7.010;2023-06-10T15:22:55;5.30;;;4.80;;
3081;SDS011;1551;51.046;7.010;2023-06-10T15:25:44;4.95;;;4.55;;
3081;SDS011;1551;51.046;7.010;2023-06-10T15:28:34;5.40;;;4.90;;
3081;SDS011;1551;51.046;7.010;2023-06-10T15:31:22;5.30;;;4.80;;
3081;SDS011;1551;51.046;7.010;2023-06-10T15:34:11;5.70;;;4.60;;
3081;SDS011;1551;51.046;7.010;2023-06-10T15:37:00;5.70;;;4.17;;
3081;SDS011;1551;51.046;7.010;2023-06-10T15:39:49;4.80;;;4.32;;
3081;SDS011;1551;51.046;7.010;2023-06-10T15:42:38;5.70;;;4.70;;
3081;SDS011;1551;51.046;7.010;2023-06-10T15:45:28;5.47;;;4.20;;
3081;SDS011;1551;51.046;7.010;2023-06-10T15:48:17;5.90;;;4.50;;
3081;SDS011;1551;51.046;7.010;2023-06-10T15:51:06;5.50;;;5.00;;
3081;SDS011;1551;51.046;7.010;2023-06-10T15:53:55;5.40;;;4.38;;
3081;SDS011;1551;51.046;7.010;2023-06-10T15:56:44;4.40;;;3.83;;
3081;SDS011;1551;51.046;7.010;2023-06-10T15:59:34;6.15;;;4.32;;
3081;SDS011;1551;51.046;7.010;2023-06-10T16:02:23;5.00;;;4.50;;
3081;SDS011;1551;51.046;7.010;2023-06-10T16:05:12;5.15;;;4.30;;
3081;SDS011;1551;51.046;7.010;2023-06-10T16:08:01;6.33;;;4.50;;
3081;SDS011;1551;51.046;7.010;2023-06-10T16:10:50;5.20;;;4.70;;
3081;SDS011;1551;51.046;7.010;2023-06-10T16:13:39;6.70;;;5.10;;
3081;SDS011;1551;51.046;7.010;2023-06-10T16:16:29;5.35;;;4.50;;
3081;SDS011;1551;51.046;7.010;2023-06-10T16:19:19;5.30;;;4.80;;
3081;SDS011;1551;51.046;7.010;2023-06-10T16:22:07;11.30;;;5.13;;
3081;SDS011;1551;51.046;7.010;2023-06-10T16:24:56;5.20;;;4.23;;
3081;SDS011;1551;51.046;7.010;2023-06-10T16:27:45;6.47;;;4.70;;
3081;SDS011;1551;51.046;7.010;2023-06-10T16:30:34;5.30;;;4.30;;
3081;SDS011;1551;51.046;7.010;2023-06-10T16:33:23;5.05;;;4.35;;
3081;SDS011;1551;51.046;7.010;2023-06-10T16:36:12;4.80;;;4.27;;
3081;SDS011;1551;51.046;7.010;2023-06-10T16:39:01;5.47;;;4.70;;
3081;SDS011;1551;51.046;7.010;2023-06-10T16:41:52;11.55;;;9.15;;
3081;SDS011;1551;51.046;7.010;2023-06-10T16:44:41;6.70;;;5.47;;
3081;SDS011;1551;51.046;7.010;2023-06-10T16:47:30;5.75;;;4.78;;
3081;SDS011;1551;51.046;7.010;2023-06-10T16:50:19;5.82;;;5.22;;
3081;SDS011;1551;51.046;7.010;2023-06-10T16:53:08;6.30;;;4.90;;
3081;SDS011;1551;51.046;7.010;2023-06-10T16:55:57;6.80;;;4.65;;
3081;SDS011;1551;51.046;7.010;2023-06-10T16:58:46;6.50;;;5.10;;
3081;SDS011;1551;51.046;7.010;2023-06-10T17:01:35;5.93;;;4.60;;
3081;SDS011;1551;51.046;7.010;2023-06-10T17:04:24;5.07;;;4.35;;
3081;SDS011;1551;51.046;7.010;2023-06-10T17:07:13;5.20;;;4.80;;
3081;SDS011;1551;51.046;7.010;2023-06-10T17:10:02;5.10;;;4.60;;
3081;SDS011;1551;51.046;7.010;2023-06-10T17:12:52;6.45;;;4.40;;
3081;SDS011;1551;51.046;7.010;2023-06-10T17:15:41;5.03;;;4.53;;
3081;SDS011;1551;51.046;7.010;2023-06-10T17:18:30;5.03;;;4.28;;
3081;SDS011;1551;51.046;7.010;2023-06-10T17:21:19;5.05;;;4.55;;
3081;SDS011;1551;51.046;7.010;2023-06-10T17:24:08;5.43;;;4.50;;
3081;SDS011;1551;51.046;7.010;2023-06-10T17:26:57;6.15;;;4.18;;
3081;SDS011;1551;51.046;7.010;2023-06-10T17:29:46;7.38;;;4.80;;
3081;SDS011;1551;51.046;7.010;2023-06-10T17:32:35;6.15;;;4.82;;
3081;SDS011;1551;51.046;7.010;2023-06-10T17:35:25;4.97;;;4.45;;
3081;SDS011;1551;51.046;7.010;2023-06-10T17:38:14;8.65;;;4.68;;